Latest Weather Observations for Lismore Airport

IDN60801

Issued at 2:12 am EST Tuesday 20 August 2019 (issued every 10 minutes, with the page automatically refreshed every 10 minutes)

About weather observations | Map of weather stations | Latest weather observations for NSW | Other Formats
Station Details ID: 058214 Name: LISMORE AIRPORT AWS Lat: -28.83 Lon: 153.26 Height: 9.21 m
Data from the previous 72 hours. | See also: Recent months at Lismore Airport
Date/Time
EST
Temp
°C
App
Temp
°C
Dew
Point
°C
Rel
Hum
%
Delta-T
°C
Wind Press
QNH
hPa
Press
MSL
hPa
Rain since
9am
mm
Dir  Spd
km/h
Gust
km/h
Spd
kts
Gust
kts
20/02:00am 9.1 5.8 -1.3 48 4.0 SW 6 9 3 5 1023.1 1023.1 0.0
20/01:30am 9.8 7.8 0.2 51 3.9 CALM 0 0 0 0 1023.0 1023.0 0.0
20/01:00am 11.1 7.9 0.5 48 4.3 SSE 7 9 4 5 1022.8 1022.8 0.0
20/12:30am 12.3 6.9 -1.2 39 5.4 SW 17 22 9 12 1022.5 1022.5 0.0
20/12:00am 12.9 6.8 0.3 42 5.2 SW 22 32 12 17 1022.0 1022.0 0.0
 
Date/Time
EST
Temp
°C
App
Temp
°C
Dew
Point
°C
Rel
Hum
%
Delta-T
°C
Wind Press
QNH
hPa
Press
MSL
hPa
Rain since
9am
mm
Dir  Spd
km/h
Gust
km/h
Spd
kts
Gust
kts
19/11:30pm 12.8 7.2 3.2 52 4.3 WSW 22 30 12 16 1021.4 1021.4 0.0
19/11:00pm 10.9 10.7 9.0 88 0.9 CALM 0 0 0 0 1021.3 1021.3 0.0
19/10:30pm 11.0 10.9 9.3 89 0.8 CALM 0 0 0 0 1021.1 1021.1 0.0
19/10:00pm 10.3 9.9 8.1 86 1.1 CALM 0 0 0 0 1021.0 1021.0 0.0
19/09:30pm 11.4 11.3 9.5 88 1.0 CALM 0 0 0 0 1020.7 1020.7 0.0
19/09:00pm 11.1 10.8 8.5 84 1.3 CALM 0 0 0 0 1020.3 1020.3 0.0
19/08:30pm 12.3 12.4 10.2 87 1.1 CALM 0 0 0 0 1020.0 1020.0 0.0
19/08:00pm 12.2 12.0 9.2 82 1.5 CALM 0 0 0 0 1019.5 1019.5 0.0
19/07:30pm 13.3 13.2 9.4 77 2.0 CALM 0 0 0 0 1018.9 1018.9 0.0
19/07:00pm 15.1 15.2 10.3 73 2.5 CALM 0 0 0 0 1018.3 1018.3 0.0
19/06:30pm 15.6 14.5 10.6 72 2.6 SSW 7 11 4 6 1017.8 1017.8 0.0
19/06:00pm 16.7 13.9 11.2 70 3.0 S 17 22 9 12 1016.9 1016.9 0.0
19/05:30pm 17.8 14.6 11.8 68 3.3 SSE 20 30 11 16 1016.2 1016.2 0.0
19/05:00pm 19.3 15.5 12.3 64 3.9 SSE 24 35 13 19 1015.4 1015.4 0.0
19/04:30pm 23.9 17.6 -4.3 15 11.8 WSW 20 28 11 15 1014.0 1014.0 0.0
19/04:00pm 24.9 16.2 -3.5 15 12.2 WSW 33 46 18 25 1013.2 1013.2 0.0
19/03:30pm 26.5 19.0 -1.3 16 12.6 W 28 39 15 21 1012.2 1012.2 0.0
19/03:00pm 27.0 19.3 -0.1 17 12.6 WNW 30 44 16 24 1011.9 1011.9 0.0
19/02:49pm 27.2 19.9 0.1 17 12.7 WNW 28 46 15 25 1011.8 1011.8 0.0
19/02:30pm 27.5 19.5 1.8 19 12.4 WNW 33 48 18 26 1011.5 1011.5 0.0
19/02:21pm 27.5 20.1 1.8 19 12.4 WNW 30 48 16 26 1011.4 1011.4 0.0
19/02:00pm 28.1 22.5 5.6 24 11.7 WNW 24 32 13 17 1011.4 1011.4 0.0
19/01:30pm 27.9 23.4 6.1 25 11.4 NW 19 28 10 15 1011.7 1011.7 0.0
19/01:00pm 26.7 20.7 5.1 25 11.0 WNW 26 35 14 19 1012.1 1012.1 0.0
19/12:30pm 26.6 21.0 5.5 26 10.8 NW 24 39 13 21 1012.5 1012.5 0.0
19/12:00pm 26.1 19.3 5.1 26 10.7 WNW 30 43 16 23 1012.8 1012.8 0.0
19/11:30am 26.1 20.6 9.0 34 9.3 NW 28 39 15 21 1013.2 1013.2 0.0
19/11:00am 25.4 20.6 8.8 35 9.0 NNW 24 33 13 18 1013.6 1013.6 0.0
19/10:30am 24.9 20.6 9.2 37 8.5 NW 22 35 12 19 1014.0 1014.0 0.0
19/10:00am 24.2 19.4 9.0 38 8.2 NW 24 39 13 21 1014.2 1014.2 0.0
19/09:30am 23.7 21.8 11.7 47 6.8 NNW 13 20 7 11 1014.4 1014.4 0.0
19/09:00am 21.0 21.6 11.9 56 5.1 CALM 0 0 0 0 1014.4 1014.4 0.0
19/08:30am 17.4 18.2 12.5 73 2.7 CALM 0 0 0 0 1014.4 1014.4 0.0
19/08:00am 15.1 16.2 13.5 90 0.9 CALM 0 0 0 0 1014.5 1014.5 0.0
19/07:30am 12.1 12.6 11.6 97 0.3 CALM 0 0 0 0 1014.7 1014.7 0.0
19/07:00am 10.4 10.4 9.9 97 0.3 CALM 0 0 0 0 1014.5 1014.5 0.0
19/06:39am 10.1 10.0 9.6 97 0.2 CALM 0 0 0 0 1014.3 1014.3 0.0
19/06:37am 9.7 9.5 9.2 97 0.2 CALM 0 6 0 3 1014.4 1014.4 0.0
19/06:30am 9.6 8.1 9.1 97 0.2 ENE 7 13 4 7 1014.3 1014.3 0.0
19/06:00am 8.2 5.2 7.6 96 0.3 N 13 15 7 8 1013.5 1013.5 0.0
19/05:30am 7.3 4.8 6.7 96 0.3 N 9 13 5 7 1013.5 1013.5 0.0
19/05:00am 8.5 7.6 7.9 96 0.3 N 2 7 1 4 1013.6 1013.6 0.0
19/04:30am 8.1 5.8 7.5 96 0.3 N 9 13 5 7 1013.5 1013.5 0.0
19/04:20am 7.4 6.7 6.8 96 0.3 CALM 0 0 0 0 1013.7 1013.7 0.0
19/04:00am 8.1 7.5 7.5 96 0.3 CALM 0 0 0 0 1013.9 1013.9 0.0
19/03:30am 8.3 5.7 7.7 96 0.3 NNW 11 13 6 7 1013.9 1013.9 0.0
19/03:23am 8.2 6.5 7.6 96 0.3 NNW 6 11 3 6 1013.9 1013.9 0.0
19/03:00am 8.4 7.9 7.8 96 0.3 CALM 0 0 0 0 1014.3 1014.3 0.0
19/02:31am 8.5 8.0 7.7 95 0.4 CALM 0 0 0 0 1014.6 1014.6 0.0
19/02:30am 8.6 8.1 7.8 95 0.4 CALM 0 0 0 0 1014.7 1014.7 0.0
19/02:00am 9.8 9.6 9.2 96 0.3 CALM 0 0 0 0 1014.9 1014.9 0.0
19/01:30am 9.4 8.7 8.6 95 0.4 NNW 2 7 1 4 1015.1 1015.1 0.0
19/01:28am 9.5 8.5 8.7 95 0.4 NNW 4 9 2 5 1015.1 1015.1 0.0
19/01:17am 9.5 8.5 8.7 95 0.4 N 4 9 2 5 1015.0 1015.0 0.0
19/01:00am 9.7 7.4 8.9 95 0.4 NNW 11 13 6 7 1015.2 1015.2 0.0
19/12:30am 10.7 9.0 9.9 95 0.4 N 9 13 5 7 1016.0 1016.0 0.0
19/12:03am 10.8 9.1 10.0 95 0.4 N 9 11 5 6 1016.1 1016.1 0.0
19/12:00am 11.1 9.5 10.3 95 0.4 N 9 11 5 6 1016.1 1016.1 0.0
 
Date/Time
EST
Temp
°C
App
Temp
°C
Dew
Point
°C
Rel
Hum
%
Delta-T
°C
Wind Press
QNH
hPa
Press
MSL
hPa
Rain since
9am
mm
Dir  Spd
km/h
Gust
km/h
Spd
kts
Gust
kts
18/11:30pm 10.7 9.0 9.8 94 0.5 N 9 11 5 6 1016.3 1016.3 0.0
18/11:00pm 10.6 8.8 9.5 93 0.5 N 9 11 5 6 1016.5 1016.5 0.0
18/10:30pm 11.7 10.2 10.6 93 0.6 NNW 9 11 5 6 1016.6 1016.6 0.0
18/10:00pm 12.9 11.7 11.6 92 0.7 N 9 11 5 6 1016.8 1016.8 0.0
18/09:30pm 12.8 11.4 11.0 89 0.9 NNW 9 11 5 6 1017.1 1017.1 0.0
18/09:00pm 14.1 12.3 12.1 88 1.1 N 13 15 7 8 1017.2 1017.2 0.0
18/08:30pm 15.3 14.2 13.2 87 1.2 N 11 15 6 8 1017.1 1017.1 0.0
18/08:00pm 15.9 14.7 12.8 82 1.7 NNE 11 15 6 8 1017.1 1017.1 0.0
18/07:30pm 17.0 14.4 13.3 79 2.1 NNE 19 22 10 12 1017.0 1017.0 0.0
18/07:00pm 17.3 14.8 13.4 78 2.2 NE 19 26 10 14 1016.8 1016.8 0.0
18/06:30pm 17.5 15.0 13.4 77 2.3 NE 19 28 10 15 1016.8 1016.8 0.0
18/06:00pm 17.6 14.9 12.9 74 2.6 NE 19 26 10 14 1016.4 1016.4 0.0
18/05:30pm 18.4 15.2 13.1 71 3.0 NE 22 30 12 16 1016.4 1016.4 0.0
18/05:00pm 19.3 16.4 12.8 66 3.7 ENE 20 30 11 16 1016.4 1016.4 0.0
18/04:30pm 20.3 16.5 12.3 60 4.5 NE 24 33 13 18 1016.5 1016.5 0.0
18/04:00pm 21.4 18.0 11.4 53 5.5 NE 20 30 11 16 1016.2 1016.2 0.0
18/03:30pm 22.5 18.9 10.6 47 6.5 ENE 20 28 11 15 1016.4 1016.4 0.0
18/03:00pm 23.6 21.4 12.0 48 6.6 ENE 15 24 8 13 1016.5 1016.5 0.0
18/02:30pm 23.2 21.0 10.9 46 6.8 ENE 13 19 7 10 1017.0 1017.0 0.0
18/02:00pm 23.5 22.7 11.2 46 6.9 N 6 20 3 11 1017.4 1017.4 0.0
18/01:30pm 23.3 21.6 12.3 50 6.3 N 13 19 7 10 1017.8 1017.8 0.0
18/01:00pm 22.7 20.8 11.7 49 6.2 NE 13 20 7 11 1018.2 1018.2 0.0
18/12:30pm 22.2 21.9 11.3 50 6.1 SE 4 15 2 8 1018.7 1018.7 0.0
18/12:00pm 21.4 19.8 10.3 49 6.0 NE 9 17 5 9 1019.5 1019.5 0.0
18/11:30am 21.8 21.9 11.5 52 5.7 ENE 2 11 1 6 1020.1 1020.1 0.0
18/11:00am 21.7 21.6 12.0 54 5.4 NNE 4 13 2 7 1020.7 1020.7 0.0
18/10:30am 21.0 21.6 13.2 61 4.5 N 2 11 1 6 1021.1 1021.1 0.0
18/10:00am 19.6 19.3 11.6 60 4.4 E 4 11 2 6 1021.7 1021.7 0.0
18/09:30am 18.9 18.9 11.2 61 4.2 W 2 7 1 4 1022.0 1022.0 0.0
18/09:00am 18.0 18.0 11.1 64 3.7 NNW 2 7 1 4 1022.1 1022.1 0.0
18/08:30am 16.1 15.2 11.5 74 2.5 N 7 11 4 6 1022.1 1022.1 0.0
18/08:00am 14.6 13.5 11.9 84 1.5 N 9 11 5 6 1021.9 1021.9 0.0
18/07:30am 13.1 11.9 11.5 90 0.8 N 9 11 5 6 1021.9 1021.9 0.0
18/07:00am 10.9 9.2 9.8 93 0.6 N 9 9 5 5 1021.7 1021.7 0.0
18/06:30am 10.7 8.9 9.6 93 0.6 NNE 9 11 5 6 1021.2 1021.2 0.0
18/06:00am 11.2 9.7 10.4 95 0.4 N 9 13 5 7 1021.2 1021.2 0.0
18/05:30am 9.7 9.1 8.9 95 0.4 N 2 9 1 5 1021.2 1021.2 0.0
18/05:25am 9.5 9.2 8.7 95 0.4 CALM 0 0 0 0 1021.1 1021.1 0.0
18/05:00am 8.0 7.3 6.8 92 0.6 CALM 0 0 0 0 1020.8 1020.8 0.0
18/04:30am 8.9 8.3 7.5 91 0.7 CALM 0 0 0 0 1020.6 1020.6 0.0
18/04:20am 9.2 8.7 8.0 92 0.6 CALM 0 0 0 0 1020.8 1020.8 0.0
18/04:00am 10.0 9.8 9.1 94 0.4 CALM 0 0 0 0 1020.6 1020.6 0.0
18/03:45am 10.5 10.5 9.7 95 0.4 CALM 0 0 0 0 1020.6 1020.6 0.0
18/03:30am 9.5 9.1 8.4 93 0.5 CALM 0 0 0 0 1020.6 1020.6 0.0
18/03:00am 9.9 9.5 8.3 90 0.8 CALM 0 0 0 0 1020.4 1020.4 0.0
18/02:58am 10.0 9.7 8.6 91 0.7 CALM 0 0 0 0 1020.4 1020.4 0.0
18/02:30am 11.4 11.4 9.7 89 0.9 CALM 0 0 0 0 1020.8 1020.8 0.0
18/02:00am 12.9 13.2 10.8 87 1.1 CALM 0 0 0 0 1021.0 1021.0 0.0
18/01:30am 14.3 14.8 11.5 83 1.5 CALM 0 0 0 0 1021.0 1021.0 0.0
18/01:00am 14.2 13.0 11.5 84 1.4 SSW 9 15 5 8 1021.0 1021.0 0.0
18/12:30am 14.2 13.7 12.2 88 1.1 NNE 6 9 3 5 1021.1 1021.1 0.0
18/12:00am 14.8 13.6 12.7 87 1.1 NNW 11 13 6 7 1020.9 1020.9 0.0
 
Date/Time
EST
Temp
°C
App
Temp
°C
Dew
Point
°C
Rel
Hum
%
Delta-T
°C
Wind Press
QNH
hPa
Press
MSL
hPa
Rain since
9am
mm
Dir  Spd
km/h
Gust
km/h
Spd
kts
Gust
kts
17/11:30pm 13.2 13.8 11.8 91 0.7 CALM 0 0 0 0 1020.7 1020.7 0.0
17/11:00pm 12.9 13.3 11.1 89 0.9 CALM 0 0 0 0 1020.6 1020.6 0.0
17/10:30pm 14.2 12.8 12.1 87 1.1 S 11 13 6 7 1020.3 1020.3 0.0
17/10:00pm 14.4 12.5 11.7 84 1.4 SSW 13 15 7 8 1020.2 1020.2 0.0
17/09:30pm 14.4 12.4 11.6 83 1.5 S 13 17 7 9 1019.9 1019.9 0.0
17/09:00pm 16.0 14.2 12.2 78 2.1 SSE 13 19 7 10 1019.6 1019.6 0.0
17/08:30pm 15.1 12.8 10.5 74 2.4 SSE 13 19 7 10 1019.1 1019.1 0.0
17/08:00pm 15.7 11.3 7.5 58 4.1 SSE 20 26 11 14 1018.7 1018.7 0.0
17/07:30pm 15.6 13.2 6.9 56 4.3 N 9 13 5 7 1017.6 1017.6 0.0
17/07:00pm 16.9 13.0 7.3 53 4.8 N 17 19 9 10 1016.8 1016.8 0.0
17/06:30pm 16.2 13.0 6.9 54 4.6 N 13 17 7 9 1016.3 1016.3 0.0
17/06:00pm 20.4 16.4 6.7 41 6.9 NE 17 24 9 13 1015.9 1015.9 0.0
17/05:30pm 21.9 17.3 6.6 37 7.8 ENE 20 26 11 14 1015.8 1015.8 0.0
17/05:00pm 23.2 19.2 2.7 26 9.8 NNE 13 17 7 9 1015.4 1015.4 0.0
17/04:30pm 25.1 23.6 3.1 24 10.7 CALM 0 0 0 0 1015.1 1015.1 0.0
17/04:00pm 26.8 24.2 -2.0 15 12.9 NW 2 6 1 3 1014.9 1014.9 0.0
17/03:30pm 27.0 25.1 0.7 18 12.4 CALM 0 0 0 0 1014.9 1014.9 0.0
17/03:00pm 26.8 23.7 -2.9 14 13.1 S 4 9 2 5 1014.8 1014.8 0.0
17/02:30pm 26.8 22.0 -2.9 14 13.1 SW 13 28 7 15 1015.0 1015.0 0.0
17/02:00pm 27.0 22.4 -0.9 16 12.8 WSW 13 24 7 13 1015.2 1015.2 0.0
17/01:30pm 26.7 22.3 0.4 18 12.3 WNW 13 20 7 11 1015.4 1015.4 0.0
17/01:00pm 26.5 21.9 1.7 20 11.9 NW 15 22 8 12 1015.7 1015.7 0.0
17/12:30pm 26.2 21.2 3.5 23 11.2 WNW 19 26 10 14 1016.2 1016.2 0.0
17/12:00pm 26.5 22.0 4.3 24 11.1 W 17 26 9 14 1016.8 1016.8 0.0
17/11:30am 25.6 22.3 6.3 29 10.0 NW 13 20 7 11 1017.2 1017.2 0.0
17/11:00am 24.8 21.8 7.9 34 9.0 WNW 13 19 7 10 1017.8 1017.8 0.0
17/10:30am 24.0 19.9 8.0 36 8.5 WNW 19 24 10 13 1018.2 1018.2 0.0
17/10:00am 21.7 21.9 11.7 53 5.6 N 2 11 1 6 1018.5 1018.5 0.0
17/09:30am 19.1 18.0 10.1 56 4.8 NW 6 9 3 5 1018.8 1018.8 0.0
17/09:00am 15.8 14.5 9.2 65 3.4 N 6 9 3 5 1019.1 1019.1 0.0
17/08:30am 14.3 14.1 9.1 71 2.6 CALM 0 6 0 3 1019.3 1019.3 0.0
17/08:00am 11.8 10.2 8.8 82 1.5 N 7 9 4 5 1019.4 1019.4 0.0
17/07:30am 9.7 7.8 7.6 87 1.0 N 7 9 4 5 1019.3 1019.3 0.0
17/07:00am 7.6 4.3 6.2 91 0.6 N 13 15 7 8 1018.9 1018.9 0.0
17/06:30am 6.5 3.0 5.5 93 0.4 N 13 15 7 8 1018.4 1018.4 0.0
17/06:00am 7.0 2.8 5.9 93 0.5 N 17 20 9 11 1017.9 1017.9 0.0
17/05:30am 7.2 3.5 6.1 93 0.5 N 15 17 8 9 1017.5 1017.5 0.0
17/05:00am 7.8 4.1 6.4 91 0.6 N 15 19 8 10 1017.4 1017.4 0.0
17/04:30am 8.3 4.7 6.8 90 0.7 N 15 17 8 9 1017.3 1017.3 0.0
17/04:00am 8.2 4.2 6.7 90 0.7 N 17 20 9 11 1017.2 1017.2 0.0
17/03:30am 8.6 4.6 6.7 88 0.9 N 17 17 9 9 1017.3 1017.3 0.0
17/03:00am 8.6 5.0 6.7 88 0.9 N 15 17 8 9 1017.4 1017.4 0.0
17/02:30am 9.3 6.5 7.1 86 1.0 N 11 15 6 8 1017.6 1017.6 0.0

Other formats

Comma delimited format used in spreadsheet applications
http://www.bom.gov.au/fwo/IDN60801/IDN60801.94572.axf

JavaScript Object Notation format (JSON) in row-major order
http://www.bom.gov.au/fwo/IDN60801/IDN60801.94572.json

Data quality

Most of these data are generated automatically and are frequently updated. Quality checks on data are not normally performed. It is possible for incorrect values to appear. Refer to information at About Latest Weather Observations and please check the disclaimer before using these data.